createdAt,value
2022-11-24T00:00:34.219Z,2.57
2022-11-24T00:05:54.359Z,4.00
2022-11-24T00:11:15.610Z,4.37
2022-11-24T00:16:35.479Z,2.90
2022-11-24T00:21:55.624Z,4.07
2022-11-24T00:27:15.846Z,4.70
2022-11-24T00:32:35.947Z,3.53
2022-11-24T00:37:56.131Z,2.70
2022-11-24T00:43:16.273Z,4.03
2022-11-24T00:48:36.623Z,3.93
2022-11-24T00:53:56.842Z,4.10
2022-11-24T00:59:17.047Z,3.23
2022-11-24T01:04:37.207Z,3.43
2022-11-24T01:09:57.371Z,4.10
2022-11-24T01:15:17.561Z,4.00
2022-11-24T01:20:37.688Z,3.70
2022-11-24T01:25:57.944Z,2.83
2022-11-24T01:31:18.121Z,4.27
2022-11-24T01:36:38.670Z,2.73
2022-11-24T01:41:58.772Z,3.17
2022-11-24T01:47:18.897Z,2.90
2022-11-24T01:52:39.118Z,3.40
2022-11-24T01:57:59.170Z,3.43
2022-11-24T02:03:19.231Z,3.17
2022-11-24T02:08:39.360Z,3.10
2022-11-24T02:13:59.526Z,4.17
2022-11-24T02:19:19.465Z,5.77
2022-11-24T02:24:39.684Z,7.53
2022-11-24T02:29:59.842Z,3.67
2022-11-24T02:35:19.961Z,3.63
2022-11-24T02:40:40.167Z,2.50
2022-11-24T02:46:00.413Z,2.67
2022-11-24T02:51:20.435Z,5.53
2022-11-24T02:56:40.625Z,3.10
2022-11-24T03:02:00.778Z,2.33
2022-11-24T03:07:20.809Z,2.37
2022-11-24T03:12:40.893Z,2.60
2022-11-24T03:18:01.025Z,2.90
2022-11-24T03:23:21.087Z,3.07
2022-11-24T03:28:41.302Z,2.87
2022-11-24T03:34:01.472Z,4.67
2022-11-24T03:39:21.679Z,2.70
2022-11-24T03:44:41.785Z,2.50
2022-11-24T03:50:01.966Z,2.37
2022-11-24T03:55:22.134Z,3.23
2022-11-24T04:00:42.302Z,3.00
2022-11-24T04:06:02.382Z,2.13
2022-11-24T04:11:22.462Z,2.70
2022-11-24T04:16:42.430Z,4.70
2022-11-24T04:22:02.574Z,3.40
2022-11-24T04:27:22.687Z,2.77
2022-11-24T04:32:42.809Z,3.70
2022-11-24T04:38:02.938Z,3.90
2022-11-24T04:43:23.087Z,3.00
2022-11-24T04:48:43.192Z,3.30
2022-11-24T04:54:03.350Z,2.97
2022-11-24T04:59:23.426Z,2.40
2022-11-24T05:04:43.703Z,2.37
2022-11-24T05:10:03.800Z,3.30
2022-11-24T05:15:23.950Z,3.50
2022-11-24T05:20:44.039Z,4.77
2022-11-24T05:26:04.261Z,2.83
2022-11-24T05:31:24.613Z,2.83
2022-11-24T05:36:44.716Z,3.07
2022-11-24T05:42:04.869Z,3.00
2022-11-24T05:47:24.951Z,3.33
2022-11-24T05:52:45.142Z,3.23
2022-11-24T05:58:05.295Z,3.10
2022-11-24T06:03:25.539Z,3.73
2022-11-24T06:08:45.714Z,2.90
2022-11-24T06:14:09.772Z,4.10
2022-11-24T06:19:31.135Z,2.93
2022-11-24T06:24:51.183Z,2.00
2022-11-24T06:30:11.396Z,3.40
2022-11-24T06:35:31.575Z,3.90
2022-11-24T06:40:51.732Z,2.70
2022-11-24T06:46:11.859Z,2.60
2022-11-24T06:51:31.993Z,2.13
2022-11-24T06:56:52.141Z,2.40
2022-11-24T07:02:12.383Z,2.40
2022-11-24T07:07:32.433Z,2.90
2022-11-24T07:12:52.466Z,3.23
2022-11-24T07:18:12.541Z,4.17
2022-11-24T07:23:32.718Z,2.97
2022-11-24T07:28:52.912Z,3.40
2022-11-24T07:34:13.227Z,2.27
2022-11-24T07:39:33.318Z,2.03
2022-11-24T07:44:53.538Z,2.10
2022-11-24T07:50:13.683Z,2.53
2022-11-24T07:55:33.893Z,2.90
2022-11-24T08:00:54.120Z,4.20
2022-11-24T08:06:36.228Z,3.27
2022-11-24T08:11:53.914Z,2.50
2022-11-24T08:17:14.170Z,4.50
2022-11-24T08:22:34.145Z,2.13
2022-11-24T08:27:54.335Z,3.23
2022-11-24T08:33:14.440Z,2.60
2022-11-24T08:38:34.798Z,3.57
2022-11-24T08:43:54.884Z,3.80
2022-11-24T08:49:15.212Z,3.10
2022-11-24T08:54:35.572Z,2.97
2022-11-24T08:59:56.055Z,2.13
2022-11-24T09:05:43.689Z,3.07
2022-11-24T09:10:56.471Z,3.77
2022-11-24T09:16:16.686Z,3.30
2022-11-24T09:21:36.814Z,2.43
2022-11-24T09:26:57.115Z,1.90
2022-11-24T09:32:17.274Z,2.10
2022-11-24T09:37:37.634Z,2.53
2022-11-24T09:42:57.766Z,2.53
2022-11-24T09:48:18.033Z,2.40
2022-11-24T09:53:38.192Z,2.40
2022-11-24T09:58:58.287Z,3.63
2022-11-24T10:04:18.569Z,2.80
2022-11-24T10:09:38.752Z,1.93
2022-11-24T10:14:58.819Z,4.13
2022-11-24T10:20:19.099Z,2.43
2022-11-24T10:25:39.230Z,3.33
2022-11-24T10:30:59.530Z,3.03
2022-11-24T10:36:19.590Z,1.87
2022-11-24T10:41:39.833Z,2.43
2022-11-24T10:46:59.986Z,1.70
2022-11-24T10:52:20.175Z,2.07
2022-11-24T10:57:40.394Z,1.70
2022-11-24T11:03:00.573Z,3.83
2022-11-24T11:08:20.457Z,2.73
2022-11-24T11:13:40.579Z,2.70
2022-11-24T11:19:00.886Z,1.70
2022-11-24T11:24:20.811Z,1.70
2022-11-24T11:35:20.846Z,1.90
2022-11-24T11:40:40.904Z,2.47
2022-11-24T11:46:01.325Z,1.73
2022-11-24T11:51:23.907Z,2.13
2022-11-24T11:56:44.522Z,1.80
2022-11-24T12:02:04.584Z,3.57
2022-11-24T12:07:24.903Z,1.50
2022-11-24T12:12:44.841Z,1.33
2022-11-24T12:18:04.906Z,2.10
2022-11-24T12:23:24.958Z,2.83
2022-11-24T12:28:45.311Z,2.37
2022-11-24T12:34:05.290Z,2.00
2022-11-24T12:39:25.547Z,1.50
2022-11-24T12:44:45.803Z,2.03
2022-11-24T12:50:05.997Z,1.70
2022-11-24T12:55:26.055Z,2.57
2022-11-24T13:00:46.309Z,1.93
2022-11-24T13:06:06.390Z,1.50
2022-11-24T13:11:26.573Z,2.63
2022-11-24T13:17:13.038Z,1.90
2022-11-24T13:22:26.533Z,3.30
2022-11-24T13:27:46.567Z,3.27
2022-11-24T13:33:06.594Z,2.00
2022-11-24T13:38:26.759Z,1.70
2022-11-24T13:43:46.948Z,1.53
2022-11-24T13:49:07.178Z,2.63
2022-11-24T13:54:27.322Z,2.33
2022-11-24T13:59:47.472Z,1.33
2022-11-24T14:05:07.723Z,1.20
2022-11-24T14:10:27.900Z,2.50
2022-11-24T14:15:48.097Z,1.50
2022-11-24T14:21:08.049Z,2.60
2022-11-24T14:26:28.221Z,2.47
2022-11-24T14:31:48.350Z,2.90
2022-11-24T14:37:08.524Z,2.80
2022-11-24T14:42:28.547Z,2.50
2022-11-24T14:47:48.671Z,3.10
2022-11-24T14:53:08.683Z,1.60
2022-11-24T14:58:28.959Z,2.30
2022-11-24T15:03:49.030Z,2.60
2022-11-24T15:09:09.340Z,2.77
2022-11-24T15:14:29.319Z,2.10
2022-11-24T15:19:49.526Z,3.10
2022-11-24T15:25:09.682Z,1.50
2022-11-24T15:30:30.044Z,1.40
2022-11-24T15:35:50.024Z,1.90
2022-11-24T15:41:10.228Z,2.83
2022-11-24T15:46:30.215Z,1.50
2022-11-24T15:51:50.379Z,2.10
2022-11-24T15:57:10.483Z,1.80
2022-11-24T16:02:30.804Z,4.10
2022-11-24T16:07:50.893Z,2.13
2022-11-24T16:13:10.956Z,1.90
2022-11-24T16:18:30.984Z,1.47
2022-11-24T16:23:51.203Z,1.67
2022-11-24T16:29:11.477Z,2.53
2022-11-24T16:34:31.639Z,2.17
2022-11-24T16:39:51.654Z,2.03
2022-11-24T16:45:11.801Z,2.50
2022-11-24T16:50:31.863Z,2.83
2022-11-24T16:55:51.995Z,4.60
2022-11-24T17:01:12.253Z,3.73
2022-11-24T17:06:32.355Z,4.50
2022-11-24T17:11:52.472Z,3.53
2022-11-24T17:17:12.529Z,2.37
2022-11-24T17:22:32.668Z,1.93
2022-11-24T17:27:52.708Z,3.33
2022-11-24T17:33:13.089Z,5.30
2022-11-24T17:38:33.225Z,6.10
2022-11-24T17:43:53.455Z,4.63
2022-11-24T17:49:13.489Z,5.50
2022-11-24T17:54:48.983Z,6.10
2022-11-24T18:00:08.958Z,7.37
2022-11-24T18:05:29.126Z,4.90
2022-11-24T18:10:49.153Z,5.47
2022-11-24T18:16:09.396Z,6.53
2022-11-24T18:21:29.540Z,5.93
2022-11-24T18:26:49.705Z,4.67
2022-11-24T18:32:09.921Z,4.83
2022-11-24T18:37:30.133Z,6.80
2022-11-24T18:42:50.245Z,5.93
2022-11-24T18:48:10.336Z,4.83
2022-11-24T18:53:30.386Z,3.30
2022-11-24T18:58:50.748Z,6.50
2022-11-24T19:04:10.879Z,5.70
2022-11-24T19:09:31.186Z,6.60
2022-11-24T19:14:51.250Z,6.03
2022-11-24T19:20:11.446Z,6.60
2022-11-24T19:25:31.537Z,6.10
2022-11-24T19:30:51.813Z,4.47
2022-11-24T19:36:11.824Z,4.63
2022-11-24T19:41:32.017Z,4.30
2022-11-24T19:46:52.065Z,5.30
2022-11-24T19:52:12.271Z,5.57
2022-11-24T19:57:32.434Z,4.53
2022-11-24T20:02:52.868Z,5.63
2022-11-24T20:08:12.935Z,6.00
2022-11-24T20:13:33.158Z,5.50
2022-11-24T20:18:53.238Z,5.07
2022-11-24T20:24:13.378Z,6.20
2022-11-24T20:29:33.398Z,6.33
2022-11-24T20:34:53.657Z,5.63
2022-11-24T20:40:13.741Z,5.20
2022-11-24T20:45:33.969Z,5.83
2022-11-24T20:50:54.046Z,4.30
2022-11-24T20:56:14.310Z,4.00
2022-11-24T21:01:34.481Z,4.43
2022-11-24T21:06:54.686Z,5.30
2022-11-24T21:12:14.911Z,3.20
2022-11-24T21:17:35.067Z,6.03
2022-11-24T21:22:55.317Z,4.57
2022-11-24T21:28:15.426Z,4.93
2022-11-24T21:33:35.591Z,6.33
2022-11-24T21:38:55.796Z,4.70
2022-11-24T21:44:15.840Z,4.63
2022-11-24T21:49:35.904Z,5.37
2022-11-24T21:54:56.096Z,4.03
2022-11-24T22:00:16.154Z,5.10
2022-11-24T22:05:36.296Z,4.73
2022-11-24T22:10:56.438Z,4.60
2022-11-24T22:16:16.683Z,5.60
2022-11-24T22:21:36.704Z,3.20
2022-11-24T22:26:56.747Z,5.30
2022-11-24T22:32:16.858Z,6.23
2022-11-24T22:37:37.064Z,4.20
2022-11-24T22:42:57.137Z,5.30
2022-11-24T22:48:17.409Z,4.13
2022-11-24T22:53:37.484Z,3.73
2022-11-24T22:58:57.719Z,5.63
2022-11-24T23:04:17.869Z,4.60
2022-11-24T23:09:37.966Z,5.80
2022-11-24T23:14:58.123Z,6.90
2022-11-24T23:20:18.276Z,4.23
2022-11-24T23:25:38.419Z,5.10
2022-11-24T23:30:58.675Z,3.73
2022-11-24T23:36:18.750Z,4.20
2022-11-24T23:41:38.991Z,3.70
2022-11-24T23:46:59.114Z,3.80
2022-11-24T23:52:19.326Z,4.93
2022-11-24T23:57:39.414Z,3.60
